Flight Track Log - Related Links

Times and Time Zones

All times are in EDT time to prevent confusion due to time zone crossing. See the SWA3497 flight status page for this flight to view local times or setup timezone preferences in your user account.

Time Position Orientation Groundspeed Altitude Reporting Facility
EDT Latitude Longitude Course Direction KTS MPH feet Rate Location/Type
Mon 04:20:56 PM 39.1500 -76.6500 117° Southeast 149 171 1,500  Level Potomac TRACON
Mon 04:23:02 PM 39.1014 -76.5250 117° Southeast 207 238 8,500 3,122 Climbing Washington Center
Mon 04:25:02 PM 39.1406 -76.2900 78° East 288 331 14,300 2,967 Climbing Washington Center
Mon 04:26:02 PM 39.1600 -76.1564 79° East 329 379 17,400 3,000 Climbing Washington Center
Mon 04:27:02 PM 39.1961 -76.0256 70° East 372 428 20,300 2,600 Climbing Washington Center
Mon 04:28:02 PM 39.2672 -75.9133 51° Northeast 377 434 22,600 2,700 Climbing Washington Center
Mon 04:29:02 PM 39.3425 -75.8008 49° Northeast 396 456 25,700 2,200 Climbing Washington Center
Mon 04:30:02 PM 39.4219 -75.6883 48° Northeast 401 461 27,000 650 Climbing Washington Center
Mon 04:31:02 PM 39.4989 -75.5700 50° Northeast 412 474 27,000  Level Washington Center
Mon 04:32:02 PM 39.5758 -75.4542 49° Northeast 422 486 27,000  Level Washington Center
Mon 04:33:35 PM 39.6806 -75.2997 49° Northeast 418 481 27,000  Level New York Center
Mon 04:34:35 PM 39.7533 -75.1911 49° Northeast 413 475 27,000  Level New York Center
Mon 04:35:37 PM 39.8244 -75.0767 51° Northeast 413 475 27,000  Level New York Center
Mon 04:36:34 PM 39.9014 -74.9622 49° Northeast 413 475 27,000  Level New York Center
Mon 04:37:35 PM 39.9831 -74.8372 50° Northeast 413 475 27,000  Level New York Center
Mon 04:38:36 PM 40.0533 -74.7275 50° Northeast 406 467 27,000  Level New York Center
Mon 04:39:34 PM 40.1194 -74.6225 51° Northeast 406 467 27,000  Level New York Center
Mon 04:40:35 PM 40.1939 -74.5100 49° Northeast 412 474 27,000  Level New York Center
Mon 04:41:35 PM 40.2911 -74.4008 41° Northeast 412 474 27,000  Level New York Center
Mon 04:42:36 PM 40.3772 -74.3100 39° Northeast 406 467 27,000  Level New York Center
Mon 04:43:34 PM 40.4656 -74.2164 39° Northeast 400 460 27,000 -264 Level New York Center
Mon 04:45:15 PM 40.5794 -74.0878 41° Northeast 391 450 26,300 -741 Descending Boston Center
Mon 04:46:16 PM 40.6831 -73.9836 37° Northeast 385 443 25,000 -1,169 Descending Boston Center
Mon 04:47:13 PM 40.7675 -73.8953 38° Northeast 385 443 24,000 -513 Descending Boston Center
Mon 04:48:13 PM 40.8481 -73.7956 43° Northeast 385 443 24,000 -197 Level Boston Center
Mon 04:49:15 PM 40.9303 -73.7011 41° Northeast 385 443 23,600 -541 Descending Boston Center
Mon 04:50:15 PM 41.0269 -73.6453 24° Northeast 379 436 22,900 -300 Descending Boston Center
Mon 04:51:15 PM 41.1211 -73.5972 21° North 364 419 23,000 -458 Climbing Boston Center
Mon 04:52:13 PM 41.2153 -73.5467 22° Northeast 364 419 22,000 -1,017 Descending Boston Center
Mon 04:53:13 PM 41.3097 -73.4983 21° North 359 413 21,000 -1,587 Descending Boston Center
Mon 04:54:14 PM 41.4122 -73.4614 15° North 354 407 18,800 -1,488 Descending Boston Center
Mon 04:55:14 PM 41.5078 -73.4714 356° North 338 389 18,000 -397 Descending Boston Center
Mon 04:56:15 PM 41.6058 -73.4783 357° North 347 399 18,000 -295 Level Boston Center
Mon 04:57:16 PM 41.7058 -73.4883 356° North 347 399 17,400 -763 Descending Boston Center
Mon 04:58:13 PM 41.7994 -73.4983 355° North 353 406 16,500 -1,169 Descending Boston Center
Mon 04:59:14 PM 41.8994 -73.5083 356° North 348 400 15,100 -1,444 Descending Boston Center
Mon 05:00:26 PM 41.9972 -73.5156 357° North 348 400 13,300 -1,846 Descending Boston Center
Mon 05:01:24 PM 42.1033 -73.5286 355° North 335 386 11,100 -1,232 Descending Boston Center
Mon 05:02:18 PM 42.1844 -73.5439 352° North 319 367 11,000 -393 Descending Boston Center
Mon 05:03:26 PM 42.2761 -73.5681 349° North 300 345 10,300 -938 Descending Boston Center
Mon 05:04:26 PM 42.3550 -73.5892 349° North 299 344 9,000 -1,424 Descending Boston Center
Mon 05:05:24 PM 42.4300 -73.5989 355° North 279 321 7,500 -1,426 Descending Boston Center
Mon 05:06:28 PM 42.5111 -73.6033 358° North 272 313 6,100 -1,488 Descending Boston Center
Mon 05:07:25 PM 42.5839 -73.6244 348° North 272 313 4,500 -1,487 Descending Boston Center
Mon 05:08:25 PM 42.6567 -73.6483 346° North 272 313 3,200 -793 Descending Boston Center
Mon 05:09:26 PM 42.7231 -73.6750 344° North 260 299 2,900 -316 Descending Boston Center
Mon 05:09:41 PM 42.7353 -73.6867 325° Northwest 233 268 2,800 -492 Descending Boston Center
Mon 05:10:27 PM 42.7706 -73.7128 331° Northwest 211 243 2,400 -659 Descending Boston Center
Mon 05:11:12 PM 42.7972 -73.7417 322° Northwest 147 169 1,800  Descending Boston Center
Mon 05:11:27 PM 42.8222 -73.7450 354° North 211 243 2,400 -658 Climbing Boston Center
Mon 05:12:25 PM 42.7944 -73.8011 236° Southwest 135 155 1,000 -1,068 Descending Boston Center
Mon 05:13:25 PM 42.7589 -73.8058 186° South 124 143 300 10,909 Descending Boston Center
Mon 05:14:26 PM 42.9772 -73.8561 350° North 211 243 23,000 22,328 Climbing Boston Center

Login

Don't have an account? Register now (free) for customized features, flight alerts, and more!